Vers la page d'accueil de NAV CANADA Ouverture d'une nouvelle session Chercher sur le site AWWS Clause de non-reponsabilité To the equivalent English page Trucs et astuces FAQ Quoi de neuf sur le site Vers la section Prévisions et observations / NOTAM Vers le site web pour <<Déposer un plan de vol>> Publications et liens importants Mise à jour du profil d'usager Numéros de téléphone des FIC Mes données météo personnelles Données météo de route Données météo régionales Données météo locales Vers la section Prévisions et observations / NOTAM
Requête générée le 2023/05/29 à 06:12:27 UTC. L'information météorologique disponible à ce moment est affichée.

METAR/TAF

Si vous notez des différences entre le METAR/TAF codé et le METAR/TAF en langage clair, veuillez utiliser la version codée. Les bulletins LWIS ne sont pas décodés en langage clair.

SHERBROOKE/QC    (voir Cam météo)

METAR CYSC 290600Z AUTO 05002KT 9SM CLR 11/04 A3006 RMK SLP181=
METAR
LIEU
CYSC - SHERBROOKE/QC
DATE - HEURE
29 MAI 2023 - 0600 UTC
VENT
50 VRAIS @ 2  NOEUDS
VISIBILITE
9 MILLES TERR.
PORTEE VISUELLE DE PISTE
METEO
NEBULOSITE
CIEL DEGAGE
TEMP / PT DE ROSEE
11 C / 4 C
ALTIMETRE
30.06 PO HG
TEMPS RECENT
CISAILLEMENT

METAR CYSC 290500Z AUTO 05005KT 9SM CLR 15/02 A3005 RMK SLP178=
METAR
LIEU
CYSC - SHERBROOKE/QC
DATE - HEURE
29 MAI 2023 - 0500 UTC
VENT
50 VRAIS @ 5  NOEUDS
VISIBILITE
9 MILLES TERR.
PORTEE VISUELLE DE PISTE
METEO
NEBULOSITE
CIEL DEGAGE
TEMP / PT DE ROSEE
15 C / 2 C
ALTIMETRE
30.05 PO HG
TEMPS RECENT
CISAILLEMENT

METAR CYSC 290400Z AUTO 06006KT 010V080 9SM CLR 17/02 A3003 RMK SLP171 DENSITY T 1100FT=
METAR
LIEU
CYSC - SHERBROOKE/QC
DATE - HEURE
29 MAI 2023 - 0400 UTC
VENT
60 VRAIS @ 6  NOEUDS
VARIATION
10 <-> 80  DEG
VISIBILITE
9 MILLES TERR.
PORTEE VISUELLE DE PISTE
METEO
NEBULOSITE
CIEL DEGAGE
TEMP / PT DE ROSEE
17 C / 2 C
ALTIMETRE
30.03 PO HG
TEMPS RECENT
CISAILLEMENT

*** REMARQUE : La période de prévision est échue; ceci était le dernier TAF qui a été émis
TAF CYSC 282340Z 2900/2903 30008KT P6SM BKN080 BECMG 2901/2903 03008KT RMK FCST BASED ON AUTO OBS. NXT FCST BY 291100Z=
TAF
LIEU

CYSC - SHERBROOKE/QC
VALIDITE [UTC]
28 MAY - 2340 à
29 MAY - 0300
 
PERIODES
[UTC]
VENT
[DEGRES VRAIS]
VISIBILITE
[MILLES TERR.]
METEO
NEBULOSITE
[PIEDS AGL]
 
29 MAY - 0000 à
29 MAY - 0300
300 @ 8 NOEUDS
6+
---
8000 FRAGMENTES
CHANGEMENTS GRADUELS
29 MAY - 0100 à
29 MAY - 0300
30 @ 8 NOEUDS
 
 
 
REMARQUES


Votre heure Heure UTC
Données météorologiques fournies par Environnement Canada et NAV CANADA